createdAt,value
2018-12-25T00:00:14.555Z,5.42
2018-12-25T00:02:49.511Z,5.42
2018-12-25T00:05:22.118Z,5.44
2018-12-25T00:07:54.624Z,5.47
2018-12-25T00:10:27.229Z,5.45
2018-12-25T00:12:59.723Z,5.48
2018-12-25T00:15:33.005Z,5.54
2018-12-25T00:18:06.301Z,5.50
2018-12-25T00:20:38.322Z,5.57
2018-12-25T00:23:13.073Z,5.56
2018-12-25T00:25:45.502Z,5.57
2018-12-25T00:28:18.282Z,5.62
2018-12-25T00:30:50.586Z,5.66
2018-12-25T00:33:22.776Z,5.75
2018-12-25T00:35:54.558Z,5.74
2018-12-25T00:38:27.259Z,5.84
2018-12-25T00:40:59.584Z,5.73
2018-12-25T00:43:31.627Z,5.80
2018-12-25T00:46:03.623Z,5.78
2018-12-25T00:48:42.034Z,5.88
2018-12-25T00:51:14.605Z,5.87
2018-12-25T00:53:46.975Z,5.90
2018-12-25T00:56:18.892Z,5.83
2018-12-25T00:58:52.205Z,5.86
2018-12-25T01:01:24.519Z,5.90
2018-12-25T01:03:56.953Z,5.92
2018-12-25T01:06:29.860Z,5.98
2018-12-25T01:09:01.972Z,5.97
2018-12-25T01:11:34.723Z,6.01
2018-12-25T01:14:06.920Z,6.08
2018-12-25T01:16:39.599Z,6.01
2018-12-25T01:19:11.773Z,6.01
2018-12-25T01:21:44.902Z,6.08
2018-12-25T01:24:16.764Z,6.07
2018-12-25T01:26:48.643Z,6.15
2018-12-25T01:29:21.752Z,6.07
2018-12-25T01:31:53.878Z,6.06
2018-12-25T01:34:25.776Z,6.00
2018-12-25T01:36:58.313Z,6.04
2018-12-25T01:39:32.733Z,6.06
2018-12-25T01:42:04.786Z,6.04
2018-12-25T01:44:37.800Z,6.08
2018-12-25T01:47:09.728Z,6.05
2018-12-25T01:49:42.102Z,6.08
2018-12-25T01:52:14.619Z,6.06
2018-12-25T01:54:47.925Z,6.08
2018-12-25T01:57:20.100Z,6.14
2018-12-25T01:59:52.287Z,6.19
2018-12-25T02:02:24.117Z,6.26
2018-12-25T02:04:56.155Z,6.13
2018-12-25T02:07:27.989Z,6.08
2018-12-25T02:10:00.347Z,6.16
2018-12-25T02:12:32.679Z,6.11
2018-12-25T02:15:05.252Z,6.10
2018-12-25T02:17:37.943Z,6.08
2018-12-25T02:20:10.272Z,6.03
2018-12-25T02:22:42.267Z,6.09
2018-12-25T02:25:14.244Z,6.10
2018-12-25T02:27:46.447Z,6.05
2018-12-25T02:30:19.493Z,5.95
2018-12-25T02:32:51.676Z,5.93
2018-12-25T02:35:23.920Z,5.78
2018-12-25T02:37:55.720Z,5.80
2018-12-25T02:40:28.263Z,5.80
2018-12-25T02:43:00.732Z,5.84
2018-12-25T02:45:32.664Z,5.94
2018-12-25T02:48:04.649Z,5.87
2018-12-25T02:50:36.831Z,5.81
2018-12-25T02:53:09.830Z,5.75
2018-12-25T02:55:46.466Z,5.81
2018-12-25T02:58:19.156Z,5.72
2018-12-25T03:00:51.950Z,5.68
2018-12-25T03:03:23.896Z,5.65
2018-12-25T03:05:58.193Z,5.67
2018-12-25T03:08:31.230Z,5.67
2018-12-25T03:11:04.061Z,5.70
2018-12-25T03:13:35.918Z,5.76
2018-12-25T03:16:08.234Z,5.75
2018-12-25T03:18:40.634Z,5.76
2018-12-25T03:21:12.847Z,5.75
2018-12-25T03:23:44.797Z,5.81
2018-12-25T03:26:17.204Z,5.83
2018-12-25T03:28:49.767Z,5.87
2018-12-25T03:31:22.028Z,5.85
2018-12-25T03:33:54.741Z,5.90
2018-12-25T03:36:27.319Z,5.91
2018-12-25T03:39:00.214Z,5.90
2018-12-25T03:41:33.520Z,5.91
2018-12-25T03:44:05.731Z,5.92
2018-12-25T03:46:37.725Z,5.89
2018-12-25T03:49:08.981Z,5.92
2018-12-25T03:51:42.172Z,5.90
2018-12-25T03:54:14.199Z,5.97
2018-12-25T03:56:46.308Z,5.98
2018-12-25T03:59:17.903Z,6.00
2018-12-25T04:01:49.412Z,6.00
2018-12-25T04:04:21.625Z,5.97
2018-12-25T04:06:55.431Z,6.01
2018-12-25T04:09:27.302Z,6.06
2018-12-25T04:12:00.304Z,6.05
2018-12-25T04:14:32.849Z,6.09
2018-12-25T04:17:04.926Z,6.07
2018-12-25T04:19:37.271Z,6.10
2018-12-25T04:22:09.079Z,6.11
2018-12-25T04:24:42.667Z,6.15
2018-12-25T04:27:15.049Z,6.18
2018-12-25T04:29:47.391Z,6.19
2018-12-25T04:32:19.559Z,6.23
2018-12-25T04:34:51.682Z,6.22
2018-12-25T04:37:23.902Z,6.26
2018-12-25T04:39:55.963Z,6.21
2018-12-25T04:42:28.738Z,6.21
2018-12-25T04:45:01.003Z,6.28
2018-12-25T04:47:34.014Z,6.25
2018-12-25T04:50:06.212Z,6.27
2018-12-25T04:52:38.922Z,6.28
2018-12-25T04:55:11.816Z,6.31
2018-12-25T04:57:44.283Z,6.30
2018-12-25T05:00:31.232Z,6.31
2018-12-25T05:03:03.122Z,6.33
2018-12-25T05:05:36.015Z,6.31
2018-12-25T05:08:08.777Z,6.30
2018-12-25T05:10:40.993Z,6.31
2018-12-25T05:13:13.397Z,6.34
2018-12-25T05:15:45.951Z,6.32
2018-12-25T05:18:18.231Z,6.38
2018-12-25T05:20:50.536Z,6.36
2018-12-25T05:23:24.324Z,6.38
2018-12-25T05:25:57.022Z,6.39
2018-12-25T05:28:31.524Z,6.39
2018-12-25T05:31:03.752Z,6.38
2018-12-25T05:33:36.396Z,6.45
2018-12-25T05:36:09.132Z,6.42
2018-12-25T05:38:41.699Z,6.40
2018-12-25T05:41:14.279Z,6.40
2018-12-25T05:43:46.209Z,6.44
2018-12-25T05:46:18.705Z,6.39
2018-12-25T05:48:52.506Z,6.42
2018-12-25T05:51:24.794Z,6.39
2018-12-25T05:53:57.606Z,6.41
2018-12-25T05:56:29.544Z,6.42
2018-12-25T05:59:02.213Z,6.42
2018-12-25T06:01:34.890Z,6.40
2018-12-25T06:04:07.142Z,6.35
2018-12-25T06:06:39.494Z,6.38
2018-12-25T06:09:12.127Z,6.36
2018-12-25T06:11:44.505Z,6.38
2018-12-25T06:14:17.162Z,6.36
2018-12-25T06:16:49.636Z,6.43
2018-12-25T06:19:22.728Z,6.39
2018-12-25T06:21:55.022Z,6.35
2018-12-25T06:24:27.323Z,6.36
2018-12-25T06:26:59.638Z,6.37
2018-12-25T06:29:31.475Z,6.38
2018-12-25T06:32:03.630Z,6.38
2018-12-25T06:34:36.743Z,6.44
2018-12-25T06:37:09.043Z,6.42
2018-12-25T06:39:41.411Z,6.45
2018-12-25T06:42:13.694Z,6.45
2018-12-25T06:44:45.932Z,6.47
2018-12-25T06:47:17.918Z,6.39
2018-12-25T06:49:49.815Z,6.40
2018-12-25T06:52:21.728Z,6.38
2018-12-25T06:54:54.072Z,6.35
2018-12-25T06:57:26.419Z,6.42
2018-12-25T06:59:59.029Z,6.49
2018-12-25T07:02:31.508Z,6.44
2018-12-25T07:05:03.882Z,6.50
2018-12-25T07:07:36.331Z,6.47
2018-12-25T07:10:08.691Z,6.39
2018-12-25T07:12:40.918Z,6.35
2018-12-25T07:15:13.288Z,6.33
2018-12-25T07:17:45.193Z,6.26
2018-12-25T07:20:17.827Z,6.29
2018-12-25T07:22:50.854Z,6.28
2018-12-25T07:25:23.896Z,6.37
2018-12-25T07:27:56.541Z,6.41
2018-12-25T07:30:28.424Z,6.40
2018-12-25T07:33:04.495Z,6.40
2018-12-25T07:35:36.823Z,6.46
2018-12-25T07:38:09.563Z,6.55
2018-12-25T07:40:42.031Z,6.46
2018-12-25T07:43:14.200Z,6.45
2018-12-25T07:45:46.542Z,6.42
2018-12-25T07:48:18.887Z,6.45
2018-12-25T07:50:50.954Z,6.43
2018-12-25T07:53:23.678Z,6.46
2018-12-25T07:55:56.411Z,6.42
2018-12-25T07:58:29.231Z,6.34
2018-12-25T08:01:01.646Z,6.31
2018-12-25T08:03:34.347Z,6.31
2018-12-25T08:06:07.232Z,6.24
2018-12-25T08:08:39.210Z,6.25
2018-12-25T08:11:17.455Z,6.31
2018-12-25T08:13:50.753Z,6.24
2018-12-25T08:16:22.595Z,6.26
2018-12-25T08:18:54.567Z,6.24
2018-12-25T08:21:29.393Z,6.19
2018-12-25T08:24:00.456Z,6.23
2018-12-25T08:26:32.437Z,6.24
2018-12-25T08:29:04.711Z,6.26
2018-12-25T08:31:37.063Z,6.26
2018-12-25T08:34:09.467Z,6.32
2018-12-25T08:36:41.603Z,6.34
2018-12-25T08:39:14.142Z,6.39
2018-12-25T08:41:46.028Z,6.44
2018-12-25T08:44:18.557Z,6.47
2018-12-25T08:46:50.627Z,6.44
2018-12-25T08:49:23.401Z,6.45
2018-12-25T08:51:56.725Z,6.46
2018-12-25T08:54:29.039Z,6.51
2018-12-25T08:57:01.396Z,6.59
2018-12-25T08:59:33.391Z,6.62
2018-12-25T09:02:05.722Z,6.68
2018-12-25T09:04:38.379Z,6.62
2018-12-25T09:07:10.870Z,6.58
2018-12-25T09:09:46.664Z,6.66
2018-12-25T09:12:18.729Z,6.64
2018-12-25T09:14:50.792Z,6.62
2018-12-25T09:17:24.917Z,6.71
2018-12-25T09:19:56.814Z,6.76
2018-12-25T09:22:30.055Z,6.76
2018-12-25T09:25:02.406Z,6.83
2018-12-25T09:27:34.974Z,6.84
2018-12-25T09:30:09.209Z,6.90
2018-12-25T09:32:41.207Z,6.93
2018-12-25T09:35:13.713Z,6.93
2018-12-25T09:37:46.151Z,6.95
2018-12-25T09:40:18.732Z,6.98
2018-12-25T09:42:52.003Z,7.05
2018-12-25T09:45:24.654Z,7.06
2018-12-25T09:47:56.712Z,7.10
2018-12-25T09:50:28.716Z,7.18
2018-12-25T09:53:01.330Z,7.16
2018-12-25T09:55:35.868Z,7.18
2018-12-25T09:58:07.887Z,7.16
2018-12-25T10:00:40.396Z,7.20
2018-12-25T10:03:13.328Z,7.25
2018-12-25T10:05:45.536Z,7.30
2018-12-25T10:08:19.098Z,7.31
2018-12-25T10:10:51.776Z,7.41
2018-12-25T10:13:24.254Z,7.33
2018-12-25T10:15:58.479Z,7.46
2018-12-25T10:18:31.425Z,7.47
2018-12-25T10:21:03.883Z,7.48
2018-12-25T10:23:36.068Z,7.47
2018-12-25T10:26:08.972Z,7.49
2018-12-25T10:28:41.319Z,7.53
2018-12-25T10:31:33.694Z,7.49
2018-12-25T10:34:07.371Z,7.49
2018-12-25T10:36:40.220Z,7.44
2018-12-25T10:39:12.848Z,7.43
2018-12-25T10:41:44.727Z,7.50
2018-12-25T10:44:19.448Z,7.47
2018-12-25T10:46:52.216Z,7.49
2018-12-25T10:49:25.295Z,7.49
2018-12-25T10:51:58.623Z,7.52
2018-12-25T10:54:31.470Z,7.53
2018-12-25T10:57:04.265Z,7.58
2018-12-25T10:59:37.185Z,7.57
2018-12-25T11:02:09.518Z,7.61
2018-12-25T11:04:42.590Z,7.55
2018-12-25T11:07:16.559Z,7.61
2018-12-25T11:09:49.080Z,7.60
2018-12-25T11:12:22.052Z,7.56
2018-12-25T11:14:56.112Z,7.51
2018-12-25T11:17:28.584Z,7.63
2018-12-25T11:20:00.578Z,7.56
2018-12-25T11:22:33.344Z,7.55
2018-12-25T11:25:05.710Z,7.56
2018-12-25T11:27:37.959Z,7.61
2018-12-25T11:30:13.596Z,7.66
2018-12-25T11:32:46.681Z,7.80
2018-12-25T11:35:19.332Z,7.70
2018-12-25T11:37:51.679Z,7.65
2018-12-25T11:40:24.521Z,7.66
2018-12-25T11:42:58.538Z,7.62
2018-12-25T11:45:30.734Z,7.62
2018-12-25T11:48:02.843Z,7.68
2018-12-25T11:50:36.973Z,7.70
2018-12-25T11:53:09.811Z,7.62
2018-12-25T11:55:42.227Z,7.58
2018-12-25T11:58:15.050Z,7.55
2018-12-25T12:00:48.052Z,7.54
2018-12-25T12:03:20.734Z,7.57
2018-12-25T12:05:53.367Z,7.58
2018-12-25T12:08:26.449Z,7.62
2018-12-25T12:10:58.759Z,7.68
2018-12-25T12:13:31.452Z,7.64
2018-12-25T12:16:03.819Z,7.61
2018-12-25T12:18:36.041Z,7.63
2018-12-25T12:21:08.953Z,7.61
2018-12-25T12:23:41.832Z,7.67
2018-12-25T12:26:14.543Z,7.66
2018-12-25T12:28:50.069Z,7.68
2018-12-25T12:31:23.795Z,7.66
2018-12-25T12:33:56.261Z,7.67
2018-12-25T12:36:28.129Z,7.62
2018-12-25T12:39:00.225Z,7.65
2018-12-25T12:41:33.419Z,7.75
2018-12-25T12:44:08.831Z,7.73
2018-12-25T12:46:41.684Z,7.66
2018-12-25T12:49:13.711Z,7.70
2018-12-25T12:51:46.813Z,7.66
2018-12-25T12:54:19.550Z,7.67
2018-12-25T12:56:53.588Z,7.66
2018-12-25T12:59:29.176Z,7.62
2018-12-25T13:02:01.791Z,7.59
2018-12-25T13:04:35.084Z,7.57
2018-12-25T13:07:11.103Z,7.55
2018-12-25T13:09:43.338Z,7.57
2018-12-25T13:12:17.091Z,7.63
2018-12-25T13:14:49.783Z,7.60
2018-12-25T13:17:23.043Z,7.61
2018-12-25T13:19:55.041Z,7.64
2018-12-25T13:22:28.464Z,7.68
2018-12-25T13:25:01.460Z,7.58
2018-12-25T13:27:33.565Z,7.61
2018-12-25T13:30:08.568Z,7.62
2018-12-25T13:32:40.893Z,7.61
2018-12-25T13:35:13.635Z,7.66
2018-12-25T13:37:46.844Z,7.66
2018-12-25T13:40:19.126Z,7.70
2018-12-25T13:42:51.550Z,7.63
2018-12-25T13:45:24.421Z,7.61
2018-12-25T13:47:56.933Z,7.60
2018-12-25T13:50:29.541Z,7.62
2018-12-25T13:53:02.934Z,7.58
2018-12-25T13:55:36.034Z,7.58
2018-12-25T13:58:08.394Z,7.60
2018-12-25T14:00:41.619Z,7.54
2018-12-25T14:03:13.990Z,7.59
2018-12-25T14:05:46.901Z,7.57
2018-12-25T14:08:19.675Z,7.51
2018-12-25T14:10:52.544Z,7.47
2018-12-25T14:13:25.290Z,7.51
2018-12-25T14:15:58.063Z,7.50
2018-12-25T14:18:30.663Z,7.53
2018-12-25T14:21:04.198Z,7.50
2018-12-25T14:23:36.624Z,7.53
2018-12-25T14:26:09.786Z,7.55
2018-12-25T14:28:42.264Z,7.55
2018-12-25T14:31:14.326Z,7.49
2018-12-25T14:33:46.704Z,7.61
2018-12-25T14:36:19.025Z,7.51
2018-12-25T14:38:51.678Z,7.54
2018-12-25T14:41:24.707Z,7.47
2018-12-25T14:44:04.964Z,7.49
2018-12-25T14:46:31.546Z,7.43
2018-12-25T14:49:04.269Z,7.38
2018-12-25T14:51:36.672Z,7.39
2018-12-25T14:54:09.802Z,7.37
2018-12-25T14:56:41.679Z,7.39
2018-12-25T14:59:13.998Z,7.38
2018-12-25T15:01:46.277Z,7.33
2018-12-25T15:04:19.364Z,7.34
2018-12-25T15:06:51.168Z,7.35
2018-12-25T15:09:24.325Z,7.32
2018-12-25T15:11:56.915Z,7.32
2018-12-25T15:14:28.945Z,7.23
2018-12-25T15:17:03.061Z,7.28
2018-12-25T15:19:35.262Z,7.37
2018-12-25T15:22:07.798Z,7.33
2018-12-25T15:24:39.850Z,7.43
2018-12-25T15:27:12.150Z,7.33
2018-12-25T15:29:44.582Z,7.36
2018-12-25T15:32:18.112Z,7.36
2018-12-25T15:34:51.353Z,7.22
2018-12-25T15:37:23.523Z,7.23
2018-12-25T15:39:56.139Z,7.26
2018-12-25T15:42:28.390Z,7.22
2018-12-25T15:45:00.778Z,7.17
2018-12-25T15:47:33.589Z,7.26
2018-12-25T15:50:06.316Z,7.23
2018-12-25T15:52:38.967Z,7.31
2018-12-25T15:55:11.673Z,7.17
2018-12-25T15:57:44.876Z,7.15
2018-12-25T16:00:19.707Z,7.18
2018-12-25T16:02:51.945Z,7.11
2018-12-25T16:05:23.978Z,7.05
2018-12-25T16:07:56.234Z,7.05
2018-12-25T16:10:29.893Z,7.00
2018-12-25T16:13:02.299Z,7.11
2018-12-25T16:15:34.872Z,7.09
2018-12-25T16:18:06.896Z,7.01
2018-12-25T16:20:38.704Z,7.03
2018-12-25T16:23:11.180Z,6.98
2018-12-25T16:25:44.150Z,6.91
2018-12-25T16:28:16.747Z,6.99
2018-12-25T16:30:50.005Z,6.95
2018-12-25T16:33:22.404Z,6.93
2018-12-25T16:35:57.595Z,6.98
2018-12-25T16:38:30.804Z,6.95
2018-12-25T16:41:04.846Z,6.94
2018-12-25T16:43:37.434Z,6.91
2018-12-25T16:46:11.080Z,6.93
2018-12-25T16:48:44.689Z,7.00
2018-12-25T16:51:17.480Z,7.03
2018-12-25T16:53:53.695Z,6.90
2018-12-25T16:56:24.606Z,6.88
2018-12-25T16:58:57.304Z,6.96
2018-12-25T17:01:29.865Z,6.97
2018-12-25T17:04:02.304Z,7.00
2018-12-25T17:06:34.218Z,6.97
2018-12-25T17:09:08.408Z,6.92
2018-12-25T17:11:40.733Z,6.98
2018-12-25T17:14:13.309Z,6.95
2018-12-25T17:16:45.786Z,6.91
2018-12-25T17:19:19.955Z,6.90
2018-12-25T17:21:52.036Z,6.86
2018-12-25T17:24:27.753Z,6.86
2018-12-25T17:27:02.209Z,6.98
2018-12-25T17:29:34.522Z,6.95
2018-12-25T17:32:06.919Z,6.91
2018-12-25T17:34:44.578Z,6.93
2018-12-25T17:37:16.645Z,6.91
2018-12-25T17:39:49.381Z,6.87
2018-12-25T17:42:21.749Z,6.91
2018-12-25T17:44:54.594Z,6.94
2018-12-25T17:47:27.057Z,6.89
2018-12-25T17:49:58.965Z,6.85
2018-12-25T17:52:50.705Z,6.86
2018-12-25T17:55:23.968Z,6.85
2018-12-25T17:57:57.314Z,6.87
2018-12-25T18:00:30.812Z,6.89
2018-12-25T18:03:04.039Z,6.88
2018-12-25T18:05:36.184Z,6.89
2018-12-25T18:08:08.631Z,6.81
2018-12-25T18:10:41.348Z,6.79
2018-12-25T18:13:13.316Z,6.81
2018-12-25T18:15:45.999Z,6.77
2018-12-25T18:18:19.544Z,6.75
2018-12-25T18:20:57.898Z,6.77
2018-12-25T18:23:31.395Z,6.75
2018-12-25T18:26:05.529Z,6.76
2018-12-25T18:28:38.213Z,6.79
2018-12-25T18:31:10.971Z,6.79
2018-12-25T18:33:43.386Z,6.78
2018-12-25T18:36:15.462Z,6.79
2018-12-25T18:38:48.780Z,6.77
2018-12-25T18:41:21.338Z,6.75
2018-12-25T18:43:55.167Z,6.81
2018-12-25T18:46:27.492Z,6.73
2018-12-25T18:49:00.039Z,6.75
2018-12-25T18:51:33.126Z,6.78
2018-12-25T18:54:06.163Z,6.84
2018-12-25T18:56:39.059Z,6.76
2018-12-25T18:59:12.262Z,6.75
2018-12-25T19:01:45.480Z,6.88
2018-12-25T19:04:18.712Z,6.92
2018-12-25T19:06:52.893Z,6.85
2018-12-25T19:09:25.247Z,6.83
2018-12-25T19:11:57.721Z,6.86
2018-12-25T19:14:29.661Z,6.88
2018-12-25T19:17:02.113Z,6.89
2018-12-25T19:19:34.920Z,6.91
2018-12-25T19:22:09.166Z,6.96
2018-12-25T19:24:42.015Z,6.92
2018-12-25T19:27:14.026Z,6.96
2018-12-25T19:29:46.700Z,6.99
2018-12-25T19:32:19.700Z,7.00
2018-12-25T19:34:52.662Z,7.04
2018-12-25T19:37:25.308Z,7.05
2018-12-25T19:39:57.997Z,6.99
2018-12-25T19:42:30.275Z,6.97
2018-12-25T19:45:02.992Z,6.97
2018-12-25T19:47:35.393Z,6.91
2018-12-25T19:50:08.417Z,6.92
2018-12-25T19:52:41.441Z,7.01
2018-12-25T19:55:14.935Z,6.95
2018-12-25T19:57:49.653Z,6.99
2018-12-25T20:00:22.493Z,6.97
2018-12-25T20:03:23.229Z,6.98
2018-12-25T20:06:48.243Z,7.04
2018-12-25T20:10:09.660Z,7.00
2018-12-25T20:13:58.279Z,6.95
2018-12-25T20:17:20.520Z,6.93
2018-12-25T20:21:00.307Z,6.90
2018-12-25T20:24:40.132Z,6.90
2018-12-25T20:28:03.549Z,6.90
2018-12-25T20:31:30.542Z,6.93
2018-12-25T20:34:58.519Z,6.92
2018-12-25T20:38:59.615Z,6.97
2018-12-25T20:42:31.661Z,6.85
2018-12-25T20:46:14.712Z,6.94
2018-12-25T20:49:57.427Z,6.89
2018-12-25T20:53:34.791Z,6.86
2018-12-25T20:57:30.825Z,6.92
2018-12-25T21:01:07.013Z,6.95
2018-12-25T21:04:53.471Z,6.99
2018-12-25T21:08:32.825Z,6.96
2018-12-25T21:12:12.985Z,6.96
2018-12-25T21:15:56.674Z,7.04
2018-12-25T21:19:29.257Z,6.98
2018-12-25T21:23:08.011Z,7.03
2018-12-25T21:26:34.426Z,7.05
2018-12-25T21:29:08.423Z,7.10
2018-12-25T21:31:40.850Z,7.05
2018-12-25T21:34:15.334Z,7.05
2018-12-25T21:36:53.029Z,7.10
2018-12-25T21:39:25.820Z,7.03
2018-12-25T21:41:59.776Z,7.05
2018-12-25T21:44:34.038Z,7.03
2018-12-25T21:47:07.433Z,6.99
2018-12-25T21:49:47.218Z,6.93
2018-12-25T21:52:20.329Z,6.94
2018-12-25T21:54:55.611Z,6.87
2018-12-25T21:57:28.595Z,6.88
2018-12-25T22:00:01.465Z,6.91
2018-12-25T22:02:35.342Z,6.99
2018-12-25T22:05:10.012Z,6.91
2018-12-25T22:07:42.526Z,6.87
2018-12-25T22:10:17.016Z,6.83
2018-12-25T22:12:49.937Z,6.80
2018-12-25T22:15:22.318Z,6.83
2018-12-25T22:17:54.806Z,6.88
2018-12-25T22:20:34.647Z,6.79
2018-12-25T22:23:09.464Z,6.84
2018-12-25T22:25:42.726Z,6.82
2018-12-25T22:28:15.559Z,6.75
2018-12-25T22:30:48.008Z,6.71
2018-12-25T22:33:20.793Z,6.67
2018-12-25T22:35:53.188Z,6.64
2018-12-25T22:38:25.856Z,6.63
2018-12-25T22:40:58.702Z,6.60
2018-12-25T22:43:30.798Z,6.72
2018-12-25T22:46:02.880Z,6.80
2018-12-25T22:48:35.032Z,6.72
2018-12-25T22:51:08.231Z,6.68
2018-12-25T22:53:41.466Z,6.58
2018-12-25T22:56:13.792Z,6.70
2018-12-25T22:58:47.219Z,6.69
2018-12-25T23:01:19.852Z,6.63
2018-12-25T23:03:52.493Z,6.71
2018-12-25T23:06:24.384Z,6.78
2018-12-25T23:08:57.271Z,6.79
2018-12-25T23:11:30.407Z,6.73
2018-12-25T23:14:04.067Z,6.76
2018-12-25T23:16:36.364Z,6.76
2018-12-25T23:19:09.316Z,6.76
2018-12-25T23:21:41.925Z,6.83
2018-12-25T23:24:14.479Z,6.88
2018-12-25T23:26:47.897Z,6.81
2018-12-25T23:29:20.476Z,6.87
2018-12-25T23:31:53.449Z,6.88
2018-12-25T23:34:25.746Z,6.90
2018-12-25T23:36:58.641Z,6.88
2018-12-25T23:39:30.952Z,6.91
2018-12-25T23:42:03.134Z,6.98
2018-12-25T23:44:35.954Z,6.93
2018-12-25T23:49:06.785Z,7.04
2018-12-25T23:51:39.566Z,6.92
2018-12-25T23:54:11.756Z,6.97
2018-12-25T23:56:45.397Z,6.97
2018-12-25T23:59:22.759Z,6.98
